Time;durP1;ratioP1;P1;durP2;ratioP2;P2;SDS_P1;SDS_P2;PMS_P1;PMS_P2;Temp;Humidity;BMP_temperature;BMP_pressure;BME280_temperature;BME280_humidity;BME280_pressure;Samples;Min_cycle;Max_cycle;Signal;HPM_P1;HPM_P2
2021/01/25 00:00:49;;;;;;;23.4;17.9;;;;;;;0.69;75.51367;96946.56;;;;
2021/01/25 00:10:46;;;;;;;22;19.5;;;;;;;0.7;75.55957;96945.47;;;;
2021/01/25 00:20:44;;;;;;;25.1;17.9;;;;;;;0.7;74.99707;96940.16;;;;
2021/01/25 00:30:42;;;;;;;36.1;24.5;;;;;;;0.61;75.02539;96934.72;;;;
2021/01/25 00:40:41;;;;;;;30.4;22.4;;;;;;;0.5;75.93262;96917.35;;;;
2021/01/25 00:50:38;;;;;;;27;19.5;;;;;;;0.48;74.94727;96916.86;;;;
2021/01/25 01:00:36;;;;;;;23.5;17.1;;;;;;;0.42;74.57324;96915.31;;;;
2021/01/25 01:10:34;;;;;;;29.4;21.7;;;;;;;0.4;72.88184;96917.47;;;;
2021/01/25 01:20:34;;;;;;;27.4;17.3;;;;;;;0.35;73.65723;96904.27;;;;
2021/01/25 01:30:29;;;;;;;21.5;19.2;;;;;;;0.29;74.02148;96890.3;;;;
2021/01/25 01:40:27;;;;;;;24;19.3;;;;;;;0.24;74.41992;96881.64;;;;
2021/01/25 01:50:25;;;;;;;25.2;20.8;;;;;;;0.11;75.2334;96874.35;;;;
2021/01/25 02:00:23;;;;;;;28.7;17.9;;;;;;;0.1;74.37402;96878.09;;;;
2021/01/25 02:10:21;;;;;;;23.9;15.3;;;;;;;0.15;72.48633;96883.31;;;;
2021/01/25 02:20:19;;;;;;;28.5;17.7;;;;;;;0.15;72.15527;96893.91;;;;
2021/01/25 02:30:16;;;;;;;25.9;17.9;;;;;;;0.12;71.99805;96908.52;;;;
2021/01/25 02:40:14;;;;;;;27.2;15.9;;;;;;;0.12;71.97461;96910.36;;;;
2021/01/25 02:50:12;;;;;;;23.3;17.4;;;;;;;0.08;71.90234;96902.19;;;;
2021/01/25 03:00:10;;;;;;;26.9;18.5;;;;;;;0.1;71.58594;96904.58;;;;
2021/01/25 03:20:05;;;;;;;29.1;16.7;;;;;;;0.06;71.97461;96911.5;;;;
2021/01/25 03:30:03;;;;;;;22;14.4;;;;;;;0;72.50586;96910.77;;;;
2021/01/25 03:40:01;;;;;;;22.2;14.5;;;;;;;-0.03;73.39355;96913.95;;;;
2021/01/25 03:49:59;;;;;;;15.1;13.2;;;;;;;-0.05;72.46387;96918.75;;;;
2021/01/25 03:59:56;;;;;;;22;14.7;;;;;;;-0.06;72.18652;96911.87;;;;
2021/01/25 04:09:54;;;;;;;27;19;;;;;;;-0.13;72.41895;96906.91;;;;
2021/01/25 04:19:52;;;;;;;30.2;14.6;;;;;;;-0.16;72.32422;96912.77;;;;
2021/01/25 04:29:52;;;;;;;23.3;17.1;;;;;;;-0.21;72.55762;96904.86;;;;
2021/01/25 04:39:48;;;;;;;19.6;13.6;;;;;;;-0.24;72.89453;96899.33;;;;
2021/01/25 04:49:45;;;;;;;26.7;15.1;;;;;;;-0.3;72.98438;96906.55;;;;
2021/01/25 04:59:43;;;;;;;23.2;13.9;;;;;;;-0.37;72.83984;96892.84;;;;
2021/01/25 05:09:41;;;;;;;18.6;12.8;;;;;;;-0.45;73.17871;96890.78;;;;
2021/01/25 05:19:39;;;;;;;25.5;14.4;;;;;;;-0.49;73.57617;96904.88;;;;
2021/01/25 05:29:37;;;;;;;21.3;15;;;;;;;-0.58;74.65234;96900.17;;;;
2021/01/25 05:39:34;;;;;;;32.9;22.4;;;;;;;-0.59;75.21094;96905.75;;;;
2021/01/25 05:49:32;;;;;;;29.6;15.8;;;;;;;-0.63;75.57715;96894.14;;;;
2021/01/25 05:59:30;;;;;;;27.4;18.8;;;;;;;-0.69;76.29297;96896.02;;;;
2021/01/25 06:09:28;;;;;;;21.8;18.9;;;;;;;-0.69;76.82031;96916.38;;;;
2021/01/25 06:19:25;;;;;;;27;19.3;;;;;;;-0.69;77.12793;96917.18;;;;
2021/01/25 06:29:23;;;;;;;21.7;18.4;;;;;;;-0.67;77.16406;96938.08;;;;
2021/01/25 06:39:21;;;;;;;25.2;18.8;;;;;;;-0.75;77.56738;96938.66;;;;
2021/01/25 06:49:19;;;;;;;28.4;18.5;;;;;;;-0.73;77.71387;96945.23;;;;
2021/01/25 06:59:16;;;;;;;36.9;22.5;;;;;;;-0.68;77.74512;96945.22;;;;
2021/01/25 07:09:14;;;;;;;26.2;22.3;;;;;;;-0.62;77.95313;96948.61;;;;
2021/01/25 07:19:12;;;;;;;33.6;25.4;;;;;;;-0.53;78.22363;96947.77;;;;
2021/01/25 07:29:10;;;;;;;36;28.5;;;;;;;-0.4;77.78516;96958.77;;;;
2021/01/25 07:39:07;;;;;;;33.7;22.2;;;;;;;-0.36;78.25488;96971.18;;;;
2021/01/25 07:49:05;;;;;;;35.1;23.6;;;;;;;-0.35;79.14551;96974.63;;;;
2021/01/25 07:59:04;;;;;;;39.3;26.9;;;;;;;-0.41;79.78125;96967.77;;;;
2021/01/25 08:09:01;;;;;;;58.5;33.7;;;;;;;-0.33;80.19238;96977.77;;;;
2021/01/25 08:18:59;;;;;;;39.4;28.1;;;;;;;-0.17;79.55371;96964.13;;;;
2021/01/25 08:28:57;;;;;;;42.6;34;;;;;;;-0.05;78.32324;96961.91;;;;
2021/01/25 08:38:54;;;;;;;43.2;30.1;;;;;;;0;77.83594;96961.84;;;;
2021/01/25 08:48:53;;;;;;;39.6;30;;;;;;;0.04;77.34863;96970.02;;;;
2021/01/25 08:58:53;;;;;;;56.5;40.4;;;;;;;0.03;77.85254;96965.82;;;;
2021/01/25 09:08:48;;;;;;;48.2;30.2;;;;;;;0.09;78.28125;96991.18;;;;
2021/01/25 09:18:46;;;;;;;42.7;31.1;;;;;;;0.21;77.9834;96996.11;;;;
2021/01/25 09:28:44;;;;;;;35.9;30;;;;;;;0.32;78.11523;96993.06;;;;
2021/01/25 09:38:42;;;;;;;41.9;30.8;;;;;;;0.3;78.33008;96997.08;;;;
2021/01/25 09:48:39;;;;;;;37.3;31.1;;;;;;;0.25;79.57715;96992.61;;;;
2021/01/25 09:58:37;;;;;;;46.4;32.3;;;;;;;0.31;79.61035;96996.77;;;;
2021/01/25 10:08:36;;;;;;;48.4;34.1;;;;;;;0.3;79.43262;97000.52;;;;
2021/01/25 10:18:33;;;;;;;44.7;34.3;;;;;;;0.37;79.68652;97010.78;;;;
2021/01/25 10:28:31;;;;;;;40.7;36.3;;;;;;;0.29;80.08984;97016.68;;;;
2021/01/25 10:38:29;;;;;;;42.8;33.8;;;;;;;0.18;82.73145;97018.63;;;;
2021/01/25 10:48:27;;;;;;;54.6;37.4;;;;;;;0.25;84.04199;97024.39;;;;
2021/01/25 10:58:25;;;;;;;52.3;40;;;;;;;0.09;85.43652;97014.22;;;;
2021/01/25 11:08:22;;;;;;;52.6;38.4;;;;;;;0.08;86.24707;97020.58;;;;
2021/01/25 11:18:21;;;;;;;49.6;41.2;;;;;;;0.14;86.12793;97022.14;;;;
2021/01/25 11:28:18;;;;;;;45;36.8;;;;;;;0.27;85.71582;97024.92;;;;
2021/01/25 11:38:16;;;;;;;54.6;39.2;;;;;;;0.27;85.68262;97024.13;;;;
2021/01/25 11:48:14;;;;;;;53.8;36.4;;;;;;;0.29;85.68652;97040.52;;;;
2021/01/25 11:58:12;;;;;;;37.4;32;;;;;;;0.48;85.52637;97033.47;;;;
2021/01/25 12:08:11;;;;;;;41.5;32.4;;;;;;;0.41;85.07324;97043.6;;;;
2021/01/25 12:18:07;;;;;;;36.7;29.3;;;;;;;0.52;85.01758;97039.79;;;;
2021/01/25 12:28:07;;;;;;;36.7;27.8;;;;;;;0.35;85.8418;97050.79;;;;
2021/01/25 12:38:05;;;;;;;36.4;23.7;;;;;;;0.27;86.16602;97043.47;;;;
2021/01/25 12:48:01;;;;;;;25.1;19.8;;;;;;;0.43;84.17578;97057.35;;;;
2021/01/25 12:57:59;;;;;;;15.1;12.3;;;;;;;0.42;83.44824;97079.61;;;;
2021/01/25 13:07:57;;;;;;;28.5;18.8;;;;;;;0.34;83.42188;97081.03;;;;
2021/01/25 13:17:54;;;;;;;20;13.6;;;;;;;0.11;84.87988;97107.42;;;;
2021/01/25 13:27:53;;;;;;;18.6;13.6;;;;;;;0;86.49609;97127.92;;;;
2021/01/25 13:37:54;;;;;;;23.5;14.9;;;;;;;-0.17;86.86719;97135.41;;;;
2021/01/25 13:47:48;;;;;;;24.7;16.8;;;;;;;-0.15;87.90234;97143.89;;;;
2021/01/25 13:57:46;;;;;;;23.1;17.9;;;;;;;-0.21;89.00781;97143.11;;;;
2021/01/25 14:07:44;;;;;;;26.2;20.4;;;;;;;-0.27;89.87305;97160.09;;;;
2021/01/25 14:17:41;;;;;;;30.9;26;;;;;;;-0.3;90.76563;97168.58;;;;
2021/01/25 14:27:39;;;;;;;28.6;22.4;;;;;;;-0.31;91.56152;97177.58;;;;
2021/01/25 14:37:37;;;;;;;28.3;21.8;;;;;;;-0.28;91.66602;97189.5;;;;
2021/01/25 14:47:34;;;;;;;24.7;20.6;;;;;;;-0.29;91.51074;97199.29;;;;
2021/01/25 14:57:32;;;;;;;32.1;23;;;;;;;-0.28;91.42676;97211.47;;;;
2021/01/25 15:07:30;;;;;;;26.9;21.2;;;;;;;-0.23;91.39258;97235.26;;;;
2021/01/25 15:17:28;;;;;;;36;25.4;;;;;;;-0.19;90.53613;97243.45;;;;
2021/01/25 15:27:25;;;;;;;35.6;21.9;;;;;;;-0.13;89.55273;97256.39;;;;
2021/01/25 15:37:23;;;;;;;25.6;19.2;;;;;;;-0.1;88.20703;97265.64;;;;
2021/01/25 15:47:21;;;;;;;26.7;19.4;;;;;;;-0.06;87.25293;97293.97;;;;
2021/01/25 15:57:19;;;;;;;31.3;21.9;;;;;;;-0.09;87.5;97305.1;;;;
2021/01/25 16:07:17;;;;;;;26.7;23.8;;;;;;;-0.13;87.22559;97303.26;;;;
2021/01/25 16:17:14;;;;;;;37.4;26.8;;;;;;;-0.09;87.22559;97326.29;;;;
2021/01/25 16:27:12;;;;;;;44.7;26.2;;;;;;;-0.15;86.51953;97337.17;;;;
2021/01/25 16:37:10;;;;;;;37.4;28.6;;;;;;;-0.1;87.0791;97345.88;;;;
2021/01/25 16:47:08;;;;;;;33.3;25.5;;;;;;;-0.16;87.63672;97348.81;;;;
2021/01/25 16:57:05;;;;;;;35.1;26.2;;;;;;;-0.2;87.44141;97347.75;;;;
2021/01/25 17:07:03;;;;;;;36.9;26.4;;;;;;;-0.15;86.67578;97348.55;;;;
2021/01/25 17:17:01;;;;;;;29.9;24.9;;;;;;;-0.1;85.72949;97353.82;;;;
2021/01/25 17:26:59;;;;;;;27.8;21.2;;;;;;;-0.17;85.48535;97366.55;;;;
2021/01/25 17:36:56;;;;;;;36.1;25.3;;;;;;;-0.19;85.81055;97365.23;;;;
2021/01/25 17:46:54;;;;;;;26.4;21.3;;;;;;;-0.17;85.27637;97377.14;;;;
2021/01/25 17:56:56;;;;;;;26;20.4;;;;;;;-0.22;85.5752;97390.4;;;;
2021/01/25 18:06:50;;;;;;;29.1;23.2;;;;;;;-0.14;85.7334;97397.78;;;;
2021/01/25 18:16:47;;;;;;;49.2;40.4;;;;;;;-0.19;86.11816;97404.95;;;;
2021/01/25 18:26:45;;;;;;;28.3;22.9;;;;;;;-0.23;87.28223;97407.34;;;;
2021/01/25 18:36:45;;;;;;;34;25.4;;;;;;;-0.21;87.79004;97404.44;;;;
2021/01/25 18:46:41;;;;;;;37.8;29.2;;;;;;;-0.35;88.28906;97412.13;;;;
2021/01/25 18:56:38;;;;;;;35.3;25.2;;;;;;;-0.32;88.00977;97421.38;;;;
2021/01/25 19:06:37;;;;;;;31;25.6;;;;;;;-0.36;88.25488;97442.3;;;;
2021/01/25 19:16:34;;;;;;;36.5;28.6;;;;;;;-0.34;88.3457;97458.69;;;;
2021/01/25 19:26:32;;;;;;;41.3;30.4;;;;;;;-0.39;88.49902;97464;;;;
2021/01/25 19:36:29;;;;;;;35.1;25.2;;;;;;;-0.4;88.32324;97467.7;;;;
2021/01/25 19:46:27;;;;;;;31.6;24.2;;;;;;;-0.41;87.90137;97475.89;;;;
2021/01/25 19:56:25;;;;;;;41.6;29.9;;;;;;;-0.41;87.97852;97478.53;;;;
2021/01/25 20:06:23;;;;;;;38.2;25.6;;;;;;;-0.38;87.53809;97499.98;;;;
2021/01/25 20:16:21;;;;;;;34;26.9;;;;;;;-0.43;87.76855;97505.28;;;;
2021/01/25 20:26:18;;;;;;;34.4;24.6;;;;;;;-0.45;87.87402;97512.67;;;;
2021/01/25 20:36:16;;;;;;;29.8;21.6;;;;;;;-0.42;87.95703;97520.11;;;;
2021/01/25 20:46:14;;;;;;;39.9;26.5;;;;;;;-0.45;88.41113;97544.43;;;;
2021/01/25 20:56:12;;;;;;;41;26.6;;;;;;;-0.42;89.17285;97553.72;;;;
2021/01/25 21:06:09;;;;;;;40.4;25.1;;;;;;;-0.49;90.03223;97547.88;;;;
2021/01/25 21:16:07;;;;;;;81.6;58.9;;;;;;;-0.52;90.3877;97559.77;;;;
2021/01/25 21:26:05;;;;;;;38.7;25.8;;;;;;;-0.55;90.25293;97571.67;;;;
2021/01/25 21:36:02;;;;;;;33.5;24.8;;;;;;;-0.55;89.82617;97579.61;;;;
2021/01/25 21:46:00;;;;;;;30.2;24.7;;;;;;;-0.58;89.69824;97589.92;;;;
2021/01/25 21:55:58;;;;;;;46.1;28.5;;;;;;;-0.58;89.15039;97603.15;;;;
2021/01/25 22:05:56;;;;;;;35.1;23.7;;;;;;;-0.54;88.62109;97604.23;;;;
2021/01/25 22:15:54;;;;;;;30.9;23.2;;;;;;;-0.52;88.44922;97615.33;;;;
2021/01/25 22:25:54;;;;;;;37.2;28.4;;;;;;;-0.53;88.25195;97629.64;;;;
2021/01/25 22:35:49;;;;;;;42.3;30.1;;;;;;;-0.52;87.76074;97639.95;;;;
2021/01/25 22:45:47;;;;;;;30.8;22.7;;;;;;;-0.6;87.70996;97634.38;;;;
2021/01/25 22:55:44;;;;;;;36.4;29.4;;;;;;;-0.62;87.05957;97641.77;;;;
2021/01/25 23:05:42;;;;;;;36.7;25.8;;;;;;;-0.67;86.15234;97652.34;;;;
2021/01/25 23:15:40;;;;;;;28.5;23.2;;;;;;;-0.69;86.18164;97654.43;;;;
2021/01/25 23:25:38;;;;;;;29.4;25.2;;;;;;;-0.71;85.27734;97661.84;;;;
2021/01/25 23:35:35;;;;;;;39.3;24.3;;;;;;;-0.79;84.80273;97664.96;;;;
2021/01/25 23:45:33;;;;;;;30.9;22.8;;;;;;;-0.8;84.52734;97682.67;;;;
2021/01/25 23:55:31;;;;;;;26.9;18.9;;;;;;;-0.85;83.74902;97682.67;;;;
